createdAt,value
2017-10-04T00:00:39.517Z,0
2017-10-04T00:01:40.189Z,0
2017-10-04T00:02:40.936Z,0
2017-10-04T00:03:41.701Z,0
2017-10-04T00:04:42.411Z,0
2017-10-04T00:05:43.235Z,0
2017-10-04T00:06:43.931Z,0
2017-10-04T00:07:44.675Z,0
2017-10-04T00:08:45.645Z,0
2017-10-04T00:09:46.352Z,0
2017-10-04T00:10:47.092Z,0
2017-10-04T00:11:48.115Z,0
2017-10-04T00:12:48.886Z,0
2017-10-04T00:13:49.595Z,0
2017-10-04T00:14:50.432Z,0
2017-10-04T00:15:51.192Z,0
2017-10-04T00:16:51.908Z,0
2017-10-04T00:17:52.653Z,0
2017-10-04T00:18:53.801Z,0
2017-10-04T00:19:54.513Z,0
2017-10-04T00:20:55.213Z,0
2017-10-04T00:21:56.107Z,0
2017-10-04T00:22:56.753Z,0
2017-10-04T00:23:57.457Z,0
2017-10-04T00:24:58.239Z,0
2017-10-04T00:25:59.051Z,0
2017-10-04T00:26:59.765Z,0
2017-10-04T00:28:00.551Z,0
2017-10-04T00:29:01.535Z,0
2017-10-04T00:30:02.469Z,0
2017-10-04T00:31:03.190Z,0
2017-10-04T00:32:04.008Z,0
2017-10-04T00:33:04.739Z,0
2017-10-04T00:34:05.828Z,0
2017-10-04T00:35:06.663Z,0
2017-10-04T00:36:07.401Z,0
2017-10-04T00:37:08.167Z,0
2017-10-04T00:38:09.026Z,0
2017-10-04T00:39:09.692Z,0
2017-10-04T00:40:10.605Z,0
2017-10-04T00:41:11.344Z,0
2017-10-04T00:42:12.055Z,0
2017-10-04T00:43:12.786Z,0
2017-10-04T00:46:45.660Z,0
2017-10-04T00:47:46.446Z,0
2017-10-04T00:48:47.187Z,0
2017-10-04T00:49:47.910Z,0
2017-10-04T00:50:48.618Z,0
2017-10-04T00:51:49.524Z,0
2017-10-04T00:52:50.267Z,0
2017-10-04T00:53:50.961Z,0
2017-10-04T00:54:51.806Z,0
2017-10-04T00:55:52.544Z,0
2017-10-04T00:56:53.305Z,0
2017-10-04T00:57:54.040Z,0
2017-10-04T00:58:54.784Z,0
2017-10-04T00:59:55.638Z,0
2017-10-04T01:00:56.505Z,0
2017-10-04T01:01:57.256Z,0
2017-10-04T01:02:58.160Z,0
2017-10-04T01:03:58.919Z,0
2017-10-04T01:04:59.621Z,0
2017-10-04T01:06:00.393Z,0
2017-10-04T01:07:01.232Z,0
2017-10-04T01:08:01.971Z,0
2017-10-04T01:09:02.711Z,0
2017-10-04T01:10:03.466Z,0
2017-10-04T01:11:04.216Z,0
2017-10-04T01:12:04.995Z,0
2017-10-04T01:13:05.913Z,0
2017-10-04T01:14:06.583Z,0
2017-10-04T01:15:07.316Z,0
2017-10-04T01:16:08.099Z,0
2017-10-04T01:17:08.842Z,0
2017-10-04T01:18:09.657Z,0
2017-10-04T01:19:10.790Z,0
2017-10-04T01:20:11.710Z,0
2017-10-04T01:21:12.440Z,0
2017-10-04T01:22:13.191Z,0
2017-10-04T01:23:13.874Z,0
2017-10-04T01:24:14.649Z,0
2017-10-04T01:25:15.453Z,0
2017-10-04T01:26:16.185Z,0
2017-10-04T01:27:16.882Z,0
2017-10-04T01:28:17.601Z,0
2017-10-04T01:29:18.338Z,0
2017-10-04T01:30:19.145Z,0
2017-10-04T01:31:19.902Z,0
2017-10-04T01:32:20.696Z,0
2017-10-04T01:33:21.624Z,0
2017-10-04T01:34:22.349Z,0
2017-10-04T01:35:23.083Z,0
2017-10-04T01:36:23.853Z,0
2017-10-04T01:37:24.621Z,0
2017-10-04T01:38:25.352Z,0
2017-10-04T01:39:26.062Z,0
2017-10-04T01:40:26.808Z,0
2017-10-04T01:41:27.487Z,0
2017-10-04T01:42:28.343Z,0
2017-10-04T01:43:29.252Z,0
2017-10-04T01:44:30.085Z,0
2017-10-04T01:45:30.738Z,0
2017-10-04T01:46:31.537Z,0
2017-10-04T01:47:32.315Z,0
2017-10-04T01:48:33.097Z,0
2017-10-04T01:49:33.812Z,0
2017-10-04T01:50:34.631Z,0
2017-10-04T01:51:35.349Z,0
2017-10-04T01:52:36.098Z,0
2017-10-04T01:53:36.881Z,0
2017-10-04T01:54:37.668Z,0
2017-10-04T01:55:38.377Z,0
2017-10-04T01:56:39.108Z,0
2017-10-04T01:57:39.892Z,0
2017-10-04T01:58:40.682Z,0
2017-10-04T01:59:41.442Z,0
2017-10-04T02:00:42.240Z,0
2017-10-04T02:01:42.929Z,0
2017-10-04T02:02:43.732Z,0
2017-10-04T02:03:44.431Z,0
2017-10-04T02:04:45.191Z,0
2017-10-04T02:05:45.988Z,0
2017-10-04T02:06:46.654Z,0
2017-10-04T02:07:47.394Z,0
2017-10-04T02:08:48.118Z,0
2017-10-04T02:09:48.913Z,0
2017-10-04T02:10:49.661Z,0
2017-10-04T02:11:50.399Z,0
2017-10-04T02:12:51.144Z,0
2017-10-04T02:13:51.909Z,0
2017-10-04T02:14:52.642Z,0
2017-10-04T02:15:53.402Z,0
2017-10-04T02:16:54.101Z,0
2017-10-04T02:17:54.902Z,0
2017-10-04T02:18:55.714Z,0
2017-10-04T02:19:56.500Z,0
2017-10-04T02:20:57.187Z,0
2017-10-04T02:21:57.977Z,0
2017-10-04T02:22:58.748Z,0
2017-10-04T02:23:59.532Z,0
2017-10-04T02:25:00.366Z,0
2017-10-04T02:26:01.018Z,0
2017-10-04T02:27:01.720Z,0
2017-10-04T02:28:02.462Z,0
2017-10-04T02:29:03.178Z,0
2017-10-04T02:30:03.932Z,0
2017-10-04T02:31:04.722Z,0
2017-10-04T02:32:05.459Z,0
2017-10-04T02:33:06.182Z,0
2017-10-04T02:34:06.914Z,0
2017-10-04T02:35:07.721Z,0
2017-10-04T02:36:08.405Z,0
2017-10-04T02:37:09.146Z,0
2017-10-04T02:38:10.029Z,0
2017-10-04T02:39:10.747Z,0
2017-10-04T02:41:27.049Z,0
2017-10-04T02:42:27.896Z,0
2017-10-04T02:43:28.621Z,0
2017-10-04T02:44:29.316Z,0
2017-10-04T02:45:30.068Z,0
2017-10-04T02:46:30.858Z,0
2017-10-04T02:47:31.558Z,0
2017-10-04T02:48:32.312Z,0
2017-10-04T02:49:33.037Z,0
2017-10-04T02:50:33.754Z,0
2017-10-04T02:51:34.511Z,0
2017-10-04T02:52:35.262Z,0
2017-10-04T02:53:36.039Z,0
2017-10-04T02:54:36.835Z,0
2017-10-04T02:55:37.661Z,0
2017-10-04T02:56:38.360Z,0
2017-10-04T02:57:39.088Z,0
2017-10-04T02:58:39.774Z,0
2017-10-04T02:59:40.581Z,0
2017-10-04T03:00:41.291Z,0
2017-10-04T03:01:42.057Z,0
2017-10-04T03:02:42.774Z,0
2017-10-04T03:03:43.502Z,0
2017-10-04T03:04:44.227Z,0
2017-10-04T03:05:45.007Z,0
2017-10-04T03:06:45.898Z,0
2017-10-04T03:07:51.617Z,0
2017-10-04T03:08:52.403Z,0
2017-10-04T03:09:53.205Z,0
2017-10-04T03:10:53.916Z,0
2017-10-04T03:11:54.665Z,0
2017-10-04T03:12:55.424Z,0
2017-10-04T03:13:56.165Z,0
2017-10-04T03:14:57.086Z,0
2017-10-04T03:15:57.905Z,0
2017-10-04T03:17:03.662Z,0
2017-10-04T03:18:04.367Z,0
2017-10-04T03:19:05.151Z,0
2017-10-04T03:20:05.869Z,0
2017-10-04T03:21:11.632Z,0
2017-10-04T03:22:12.391Z,0
2017-10-04T03:23:13.096Z,0
2017-10-04T03:24:13.881Z,0
2017-10-04T03:25:14.610Z,0
2017-10-04T03:26:15.356Z,0
2017-10-04T03:27:16.167Z,0
2017-10-04T03:28:16.922Z,0
2017-10-04T03:29:17.664Z,0
2017-10-04T03:30:18.375Z,0
2017-10-04T03:31:19.088Z,0
2017-10-04T03:32:19.835Z,0
2017-10-04T03:33:20.531Z,0
2017-10-04T03:34:21.321Z,0
2017-10-04T03:35:22.078Z,0
2017-10-04T03:36:22.925Z,0
2017-10-04T03:37:23.602Z,0
2017-10-04T03:38:24.334Z,0
2017-10-04T03:39:25.109Z,0
2017-10-04T03:40:26.132Z,0
2017-10-04T03:41:26.810Z,0
2017-10-04T03:42:27.583Z,0
2017-10-04T03:43:28.347Z,0
2017-10-04T03:44:29.364Z,0
2017-10-04T03:45:30.228Z,0
2017-10-04T03:46:31.025Z,0
2017-10-04T03:47:31.767Z,0
2017-10-04T03:48:32.505Z,0
2017-10-04T03:49:33.321Z,0
2017-10-04T03:50:34.192Z,0
2017-10-04T03:51:34.907Z,0
2017-10-04T03:52:35.638Z,0
2017-10-04T03:53:36.409Z,0
2017-10-04T03:54:37.111Z,0
2017-10-04T03:55:37.901Z,0
2017-10-04T03:56:38.627Z,0
2017-10-04T03:57:39.458Z,0
2017-10-04T03:58:40.141Z,0
2017-10-04T03:59:41.020Z,0
2017-10-04T04:00:41.815Z,0
2017-10-04T04:01:42.557Z,0
2017-10-04T04:02:43.338Z,0
2017-10-04T04:03:44.108Z,0
2017-10-04T04:04:44.939Z,0
2017-10-04T04:05:45.727Z,0
2017-10-04T04:06:46.388Z,0
2017-10-04T04:07:47.155Z,0
2017-10-04T04:08:47.937Z,0
2017-10-04T04:09:48.651Z,0
2017-10-04T04:10:49.377Z,0
2017-10-04T04:11:50.078Z,0
2017-10-04T04:12:50.859Z,0
2017-10-04T04:13:51.581Z,0
2017-10-04T04:14:52.295Z,0
2017-10-04T04:15:53.010Z,0
2017-10-04T04:16:53.726Z,0
2017-10-04T04:17:54.428Z,0
2017-10-04T04:18:55.255Z,0
2017-10-04T04:20:58.405Z,0
2017-10-04T04:21:59.237Z,0
2017-10-04T04:22:59.965Z,0
2017-10-04T04:24:00.733Z,0
2017-10-04T04:25:01.566Z,0
2017-10-04T04:26:02.303Z,0
2017-10-04T04:27:03.326Z,0
2017-10-04T04:28:04.067Z,0
2017-10-04T04:29:04.790Z,0
2017-10-04T04:30:05.569Z,0
2017-10-04T04:31:06.407Z,0
2017-10-04T04:32:07.144Z,0
2017-10-04T04:33:07.874Z,0
2017-10-04T04:34:08.709Z,0
2017-10-04T04:35:09.681Z,0
2017-10-04T04:36:10.451Z,0
2017-10-04T04:37:11.191Z,0
2017-10-04T04:38:12.095Z,0
2017-10-04T04:39:12.814Z,0
2017-10-04T04:40:13.891Z,0
2017-10-04T04:41:14.877Z,0
2017-10-04T04:42:15.553Z,0
2017-10-04T04:43:16.327Z,0
2017-10-04T04:44:17.005Z,0
2017-10-04T04:45:17.776Z,0
2017-10-04T04:46:18.491Z,0
2017-10-04T04:47:19.444Z,0
2017-10-04T04:48:20.162Z,0
2017-10-04T04:49:20.902Z,0
2017-10-04T04:50:21.656Z,0
2017-10-04T04:51:22.370Z,0
2017-10-04T04:52:23.104Z,0
2017-10-04T04:53:23.830Z,4
2017-10-04T04:54:24.633Z,0
2017-10-04T04:55:25.367Z,0
2017-10-04T04:56:26.176Z,4
2017-10-04T04:57:26.904Z,0
2017-10-04T04:58:27.793Z,4
2017-10-04T04:59:28.961Z,4
2017-10-04T05:00:30.120Z,4
2017-10-04T05:01:30.784Z,0
2017-10-04T05:02:31.506Z,4
2017-10-04T05:03:32.259Z,4
2017-10-04T05:04:33.049Z,4
2017-10-04T05:05:33.786Z,8
2017-10-04T05:06:34.606Z,8
2017-10-04T05:07:35.366Z,12
2017-10-04T05:08:36.200Z,12
2017-10-04T05:09:37.255Z,16
2017-10-04T05:10:37.923Z,16
2017-10-04T05:11:39.360Z,16
2017-10-04T05:12:40.023Z,16
2017-10-04T05:13:40.745Z,20
2017-10-04T05:14:41.676Z,20
2017-10-04T05:15:42.979Z,24
2017-10-04T05:16:43.809Z,28
2017-10-04T05:17:44.553Z,28
2017-10-04T05:18:45.241Z,32
2017-10-04T05:19:46.322Z,36
2017-10-04T05:20:47.016Z,44
2017-10-04T05:21:48.126Z,48
2017-10-04T05:22:49.478Z,52
2017-10-04T05:23:50.152Z,52
2017-10-04T05:24:50.913Z,60
2017-10-04T05:25:51.664Z,64
2017-10-04T05:26:52.585Z,72
2017-10-04T05:27:53.454Z,76
2017-10-04T05:28:54.176Z,84
2017-10-04T05:29:55.076Z,84
2017-10-04T05:30:56.109Z,80
2017-10-04T05:31:56.931Z,76
2017-10-04T05:32:57.749Z,80
2017-10-04T05:33:58.538Z,80
2017-10-04T05:34:59.248Z,80
2017-10-04T05:36:00.283Z,84
2017-10-04T05:37:00.952Z,88
2017-10-04T05:38:01.693Z,96
2017-10-04T05:39:02.395Z,100
2017-10-04T05:40:03.230Z,100
2017-10-04T05:41:03.947Z,104
2017-10-04T05:42:04.891Z,108
2017-10-04T05:43:05.807Z,112
2017-10-04T05:44:06.525Z,116
2017-10-04T05:45:07.337Z,116
2017-10-04T05:46:08.077Z,124
2017-10-04T05:47:08.819Z,128
2017-10-04T05:48:09.891Z,136
2017-10-04T05:49:10.582Z,140
2017-10-04T05:50:11.278Z,148
2017-10-04T05:51:12.293Z,152
2017-10-04T05:52:13.035Z,160
2017-10-04T05:53:13.776Z,164
2017-10-04T05:54:14.526Z,168
2017-10-04T05:55:15.305Z,176
2017-10-04T05:56:16.000Z,176
2017-10-04T05:57:16.746Z,184
2017-10-04T05:58:17.730Z,192
2017-10-04T05:59:20.142Z,204
2017-10-04T06:00:21.535Z,216
2017-10-04T06:01:22.748Z,224
2017-10-04T06:02:23.670Z,232
2017-10-04T06:03:24.904Z,240
2017-10-04T06:04:25.580Z,252
2017-10-04T06:05:26.404Z,260
2017-10-04T06:06:27.238Z,268
2017-10-04T06:07:28.121Z,288
2017-10-04T06:08:33.974Z,304
2017-10-04T06:09:35.618Z,320
2017-10-04T06:10:36.400Z,336
2017-10-04T06:11:37.761Z,352
2017-10-04T06:12:38.610Z,364
2017-10-04T06:13:39.766Z,388
2017-10-04T06:14:40.738Z,404
2017-10-04T06:15:41.456Z,424
2017-10-04T06:16:42.223Z,448
2017-10-04T06:17:42.949Z,468
2017-10-04T06:18:43.683Z,492
2017-10-04T06:19:44.487Z,512
2017-10-04T06:20:45.175Z,532
2017-10-04T06:21:45.939Z,548
2017-10-04T06:22:46.706Z,556
2017-10-04T06:23:47.397Z,568
2017-10-04T06:24:48.202Z,584
2017-10-04T06:25:48.943Z,604
2017-10-04T06:26:49.704Z,628
2017-10-04T06:27:50.538Z,656
2017-10-04T06:28:51.274Z,696
2017-10-04T06:29:52.873Z,736
2017-10-04T06:30:54.735Z,784
2017-10-04T06:31:55.976Z,824
2017-10-04T06:32:56.701Z,872
2017-10-04T06:33:57.472Z,916
2017-10-04T06:34:58.229Z,952
2017-10-04T06:35:58.949Z,984
2017-10-04T06:36:59.871Z,1020
2017-10-04T06:38:00.714Z,1048
2017-10-04T06:40:03.242Z,1112
2017-10-04T06:41:07.249Z,1192
2017-10-04T06:42:05.851Z,1300
2017-10-04T06:43:06.572Z,1328
2017-10-04T06:44:07.400Z,1520
2017-10-04T06:45:11.444Z,1660
2017-10-04T06:47:25.656Z,1892
2017-10-04T06:48:28.887Z,1792
2017-10-04T06:49:28.326Z,1860
2017-10-04T06:50:29.066Z,1796
2017-10-04T06:51:29.881Z,1892
2017-10-04T06:52:30.660Z,2024
2017-10-04T06:53:31.352Z,2220
2017-10-04T06:54:32.223Z,2820
2017-10-04T06:55:32.954Z,3252
2017-10-04T06:56:33.645Z,3232
2017-10-04T06:57:34.789Z,3848
2017-10-04T06:58:35.553Z,4720
2017-10-04T06:59:36.340Z,5800
2017-10-04T07:00:37.280Z,7320
2017-10-04T07:01:37.930Z,8008
2017-10-04T07:02:38.756Z,8596
2017-10-04T07:03:39.476Z,12120
2017-10-04T07:04:40.194Z,12516
2017-10-04T07:05:40.939Z,13196
2017-10-04T07:06:41.709Z,13856
2017-10-04T07:07:42.458Z,15168
2017-10-04T07:08:43.332Z,16960
2017-10-04T07:09:44.077Z,18656
2017-10-04T07:10:44.840Z,20416
2017-10-04T07:11:45.664Z,22304
2017-10-04T07:12:46.423Z,24640
2017-10-04T07:13:47.316Z,29376
2017-10-04T07:14:48.085Z,30912
2017-10-04T07:15:49.092Z,29824
2017-10-04T07:16:49.970Z,26816
2017-10-04T07:17:51.020Z,24800
2017-10-04T07:18:51.777Z,26272
2017-10-04T07:19:52.523Z,29248
2017-10-04T07:20:53.230Z,26848
2017-10-04T07:21:53.958Z,17472
2017-10-04T07:22:54.732Z,15360
2017-10-04T07:23:55.453Z,15424
2017-10-04T07:24:56.316Z,5904
2017-10-04T07:25:57.171Z,6144
2017-10-04T07:26:57.973Z,20672
2017-10-04T07:27:58.899Z,5172
2017-10-04T07:28:59.671Z,3472
2017-10-04T07:30:00.686Z,2896
2017-10-04T07:31:01.428Z,3128
2017-10-04T07:32:02.197Z,4396
2017-10-04T07:33:03.010Z,15584
2017-10-04T07:34:03.777Z,13084
2017-10-04T07:35:04.598Z,15456
2017-10-04T07:36:05.320Z,6532
2017-10-04T07:37:06.019Z,4164
2017-10-04T07:38:06.760Z,4632
2017-10-04T07:39:07.595Z,6352
2017-10-04T07:40:08.390Z,5816
2017-10-04T07:41:09.265Z,3280
2017-10-04T07:42:09.981Z,2756
2017-10-04T07:43:10.694Z,2784
2017-10-04T07:44:11.501Z,4580
2017-10-04T07:45:12.658Z,4708
2017-10-04T07:46:13.440Z,17120
2017-10-04T07:47:14.267Z,15840
2017-10-04T07:48:14.964Z,12624
2017-10-04T07:49:16.076Z,12932
2017-10-04T07:50:16.893Z,18912
2017-10-04T07:51:18.191Z,20288
2017-10-04T07:52:19.360Z,18048
2017-10-04T07:53:20.080Z,18912
2017-10-04T07:55:22.628Z,24736
2017-10-04T07:56:23.454Z,22464
2017-10-04T07:57:24.227Z,21792
2017-10-04T07:58:25.114Z,32416
2017-10-04T07:59:25.953Z,29920
2017-10-04T08:01:42.174Z,36960
2017-10-04T08:02:42.897Z,33920
2017-10-04T08:03:43.688Z,23008
2017-10-04T08:04:44.489Z,14560
2017-10-04T08:05:45.652Z,6580
2017-10-04T08:06:46.436Z,5112
2017-10-04T08:07:47.108Z,5460
2017-10-04T08:08:47.968Z,6848
2017-10-04T08:09:48.707Z,5976
2017-10-04T08:10:49.547Z,7180
2017-10-04T08:11:50.306Z,8408
2017-10-04T08:12:51.032Z,8276
2017-10-04T08:13:51.796Z,7540
2017-10-04T08:14:52.824Z,7472
2017-10-04T08:15:53.654Z,9960
2017-10-04T08:16:54.419Z,10108
2017-10-04T08:17:55.260Z,9420
2017-10-04T08:18:56.020Z,8924
2017-10-04T08:19:56.750Z,8552
2017-10-04T08:20:57.493Z,8776
2017-10-04T08:21:58.389Z,8780
2017-10-04T08:22:59.821Z,8140
2017-10-04T08:24:00.583Z,7504
2017-10-04T08:25:01.303Z,6624
2017-10-04T08:26:02.042Z,6472
2017-10-04T08:27:03.187Z,6112
2017-10-04T08:28:03.846Z,6016
2017-10-04T08:29:04.822Z,5708
2017-10-04T08:30:05.678Z,5960
2017-10-04T08:31:06.506Z,7032
2017-10-04T08:32:07.290Z,7152
2017-10-04T08:33:07.967Z,6396
2017-10-04T08:34:09.593Z,5920
2017-10-04T08:35:10.478Z,5912
2017-10-04T08:37:12.951Z,6800
2017-10-04T08:38:13.718Z,7032
2017-10-04T08:39:14.570Z,6460
2017-10-04T08:40:15.374Z,7232
2017-10-04T08:41:16.121Z,6828
2017-10-04T08:42:17.736Z,5588
2017-10-04T08:43:18.507Z,6196
2017-10-04T08:44:19.521Z,5544
2017-10-04T08:45:20.519Z,5052
2017-10-04T08:46:21.415Z,5032
2017-10-04T08:47:22.118Z,4956
2017-10-04T08:48:22.891Z,4808
2017-10-04T08:49:24.506Z,4884
2017-10-04T08:50:25.400Z,5016
2017-10-04T08:51:26.100Z,4996
2017-10-04T08:52:27.068Z,4776
2017-10-04T08:53:27.751Z,4996
2017-10-04T08:54:28.597Z,5172
2017-10-04T08:55:29.737Z,5232
2017-10-04T08:56:31.099Z,5136
2017-10-04T08:57:31.802Z,5048
2017-10-04T08:58:32.723Z,5132
2017-10-04T08:59:33.472Z,4592
2017-10-04T09:00:34.287Z,4236
2017-10-04T09:01:35.020Z,4476
2017-10-04T09:02:35.732Z,4820
2017-10-04T09:03:36.491Z,5180
2017-10-04T09:04:37.216Z,5120
2017-10-04T09:05:38.028Z,5204
2017-10-04T09:07:40.506Z,4764
2017-10-04T09:08:41.291Z,5556
2017-10-04T09:09:42.096Z,7060
2017-10-04T09:10:42.910Z,8304
2017-10-04T09:11:43.693Z,8376
2017-10-04T09:12:44.873Z,7752
2017-10-04T09:13:45.703Z,7876
2017-10-04T09:14:46.584Z,8624
2017-10-04T09:16:50.487Z,5460
2017-10-04T09:17:52.692Z,5384
2017-10-04T09:19:55.175Z,6312
2017-10-04T09:20:56.140Z,3788
2017-10-04T09:21:56.909Z,5416
2017-10-04T09:22:57.596Z,5960
2017-10-04T09:23:58.386Z,6120
2017-10-04T09:24:59.518Z,5808
2017-10-04T09:26:00.294Z,5512
2017-10-04T09:27:01.109Z,5216
2017-10-04T09:28:02.104Z,4264
2017-10-04T09:29:02.839Z,4228
2017-10-04T09:30:03.631Z,4020
2017-10-04T09:31:04.466Z,5552
2017-10-04T09:32:05.735Z,5708
2017-10-04T09:33:06.456Z,5348
2017-10-04T09:34:07.334Z,5512
2017-10-04T09:35:08.058Z,3884
2017-10-04T09:36:08.833Z,3772
2017-10-04T09:37:09.727Z,4832
2017-10-04T09:38:10.473Z,5932
2017-10-04T09:39:11.630Z,4368
2017-10-04T09:40:12.836Z,5824
2017-10-04T09:41:13.536Z,4760
2017-10-04T09:42:14.669Z,4036
2017-10-04T09:43:15.490Z,4868
2017-10-04T09:44:16.224Z,3156
2017-10-04T09:45:17.728Z,2748
2017-10-04T09:46:18.510Z,2164
2017-10-04T09:47:19.355Z,1704
2017-10-04T09:48:20.054Z,1768
2017-10-04T09:49:20.832Z,1896
2017-10-04T09:50:21.613Z,2224
2017-10-04T09:51:23.184Z,1792
2017-10-04T09:52:23.906Z,1480
2017-10-04T09:53:24.706Z,1908
2017-10-04T09:54:25.492Z,2376
2017-10-04T09:55:26.304Z,2576
2017-10-04T09:56:27.024Z,2008
2017-10-04T09:57:27.943Z,1432
2017-10-04T09:58:28.774Z,2200
2017-10-04T09:59:29.630Z,2432
2017-10-04T10:00:30.450Z,1720
2017-10-04T10:01:31.172Z,2092
2017-10-04T10:02:31.939Z,1656
2017-10-04T10:03:32.809Z,2064
2017-10-04T10:04:33.555Z,1724
2017-10-04T10:05:34.505Z,1576
2017-10-04T10:06:35.341Z,1516
2017-10-04T10:07:36.067Z,1508
2017-10-04T10:08:36.834Z,1540
2017-10-04T10:09:37.804Z,1560
2017-10-04T10:10:38.490Z,1972
2017-10-04T10:11:39.413Z,2136
2017-10-04T10:12:40.238Z,1616
2017-10-04T10:13:40.959Z,1052
2017-10-04T10:14:41.662Z,868
2017-10-04T10:15:42.443Z,940
2017-10-04T10:16:43.389Z,1256
2017-10-04T10:17:44.297Z,1728
2017-10-04T10:18:45.073Z,1924
2017-10-04T10:19:46.005Z,1804
2017-10-04T10:20:46.939Z,1836
2017-10-04T10:21:47.665Z,2036
2017-10-04T10:22:48.479Z,2236
2017-10-04T10:23:49.196Z,2124
2017-10-04T10:24:49.948Z,1812
2017-10-04T10:25:50.651Z,1984
2017-10-04T10:26:51.640Z,2416
2017-10-04T10:27:52.835Z,2352
2017-10-04T10:28:53.558Z,1888
2017-10-04T10:29:54.463Z,1644
2017-10-04T10:30:55.613Z,1888
2017-10-04T10:31:56.299Z,1744
2017-10-04T10:32:57.044Z,1776
2017-10-04T10:33:57.888Z,2092
2017-10-04T10:34:58.622Z,2384
2017-10-04T10:35:59.389Z,2336
2017-10-04T10:37:00.186Z,2872
2017-10-04T10:38:00.916Z,3156
2017-10-04T10:39:02.014Z,3044
2017-10-04T10:40:02.789Z,2904
2017-10-04T10:41:03.544Z,2616
2017-10-04T10:42:04.301Z,2472
2017-10-04T10:43:05.135Z,2368
2017-10-04T10:44:05.932Z,2628
2017-10-04T10:45:06.694Z,2632
2017-10-04T10:46:07.436Z,2616
2017-10-04T10:47:08.629Z,3168
2017-10-04T10:48:09.534Z,2796
2017-10-04T10:49:10.271Z,2868
2017-10-04T10:50:11.112Z,2492
2017-10-04T10:51:12.024Z,2196
2017-10-04T10:52:12.746Z,2528
2017-10-04T10:53:13.610Z,2848
2017-10-04T10:54:14.460Z,3152
2017-10-04T10:55:15.253Z,3432
2017-10-04T10:56:15.978Z,2652
2017-10-04T10:57:16.795Z,2444
2017-10-04T10:58:17.538Z,2416
2017-10-04T10:59:18.370Z,2448
2017-10-04T11:00:19.140Z,2376
2017-10-04T11:01:20.012Z,2960
2017-10-04T11:02:20.825Z,3044
2017-10-04T11:03:21.543Z,3060
2017-10-04T11:04:22.269Z,2972
2017-10-04T11:05:23.062Z,2884
2017-10-04T11:06:23.793Z,2732
2017-10-04T11:07:24.550Z,2740
2017-10-04T11:08:25.367Z,2892
2017-10-04T11:09:26.120Z,2608
2017-10-04T11:10:26.898Z,2232
2017-10-04T11:11:27.706Z,2576
2017-10-04T11:12:28.627Z,1880
2017-10-04T11:13:29.452Z,1740
2017-10-04T11:14:30.282Z,1684
2017-10-04T11:15:31.134Z,1948
2017-10-04T11:16:31.846Z,1704
2017-10-04T11:17:32.560Z,2012
2017-10-04T11:18:33.420Z,2084
2017-10-04T11:19:34.236Z,2160
2017-10-04T11:20:34.972Z,1964
2017-10-04T11:21:36.129Z,1704
2017-10-04T11:22:36.929Z,1424
2017-10-04T11:23:37.642Z,1276
2017-10-04T11:24:38.386Z,1352
2017-10-04T11:25:39.252Z,1512
2017-10-04T11:26:39.984Z,1908
2017-10-04T11:27:40.840Z,2172
2017-10-04T11:28:41.669Z,1988
2017-10-04T11:29:42.498Z,1756
2017-10-04T11:30:43.303Z,1664
2017-10-04T11:31:44.279Z,1832
2017-10-04T11:32:45.101Z,2104
2017-10-04T11:33:45.787Z,2164
2017-10-04T11:34:46.589Z,2156
2017-10-04T11:37:03.236Z,1976
2017-10-04T11:38:04.189Z,1660
2017-10-04T11:39:05.033Z,1504
2017-10-04T11:40:05.844Z,1196
2017-10-04T11:41:06.657Z,1112
2017-10-04T11:42:07.393Z,1040
2017-10-04T11:43:08.207Z,1068
2017-10-04T11:44:09.229Z,1092
2017-10-04T11:45:10.305Z,1224
2017-10-04T11:46:11.133Z,1356
2017-10-04T11:47:12.399Z,1504
2017-10-04T11:48:13.205Z,1628
2017-10-04T11:49:13.969Z,1652
2017-10-04T11:50:14.777Z,1620
2017-10-04T11:51:15.501Z,1504
2017-10-04T11:52:16.293Z,1432
2017-10-04T11:53:17.016Z,1384
2017-10-04T11:54:17.828Z,1344
2017-10-04T11:55:18.555Z,1252
2017-10-04T11:56:19.365Z,1196
2017-10-04T11:57:20.182Z,1220
2017-10-04T11:58:20.923Z,1304
2017-10-04T11:59:21.686Z,1256
2017-10-04T12:00:23.082Z,1088
2017-10-04T12:01:23.752Z,1208
2017-10-04T12:02:24.540Z,1544
2017-10-04T12:03:25.254Z,1960
2017-10-04T12:04:26.027Z,1948
2017-10-04T12:05:26.900Z,1904
2017-10-04T12:06:27.677Z,1836
2017-10-04T12:07:28.464Z,1708
2017-10-04T12:08:29.204Z,1716
2017-10-04T12:09:30.138Z,1936
2017-10-04T12:10:30.957Z,2204
2017-10-04T12:11:31.745Z,2180
2017-10-04T12:12:32.584Z,1976
2017-10-04T12:13:33.268Z,2012
2017-10-04T12:14:34.037Z,2080
2017-10-04T12:15:34.759Z,2132
2017-10-04T12:16:35.520Z,2096
2017-10-04T12:17:36.300Z,1996
2017-10-04T12:18:37.387Z,1796
2017-10-04T12:31:47.667Z,1536
2017-10-04T12:49:00.263Z,1184
2017-10-04T13:28:29.346Z,1036
2017-10-04T13:29:30.094Z,936
2017-10-04T13:30:30.899Z,824
2017-10-04T13:31:32.148Z,756
2017-10-04T13:32:33.217Z,688
2017-10-04T13:33:34.215Z,660
2017-10-04T13:34:34.957Z,644
2017-10-04T13:35:35.661Z,644
2017-10-04T13:36:36.448Z,616
2017-10-04T13:37:37.177Z,624
2017-10-04T13:38:37.865Z,660
2017-10-04T13:39:39.373Z,616
2017-10-04T13:40:40.150Z,688
2017-10-04T13:41:40.848Z,792
2017-10-04T13:42:41.621Z,832
2017-10-04T13:43:42.547Z,728
2017-10-04T13:44:43.321Z,704
2017-10-04T13:45:44.295Z,708
2017-10-04T13:46:45.024Z,700
2017-10-04T13:47:46.076Z,720
2017-10-04T13:48:47.034Z,804
2017-10-04T13:49:47.925Z,824
2017-10-04T13:50:48.766Z,792
2017-10-04T13:51:49.435Z,804
2017-10-04T13:52:50.132Z,796
2017-10-04T13:53:50.843Z,832
2017-10-04T13:54:51.594Z,888
2017-10-04T13:55:52.309Z,936
2017-10-04T13:56:53.183Z,1008
2017-10-04T13:57:54.073Z,1024
2017-10-04T13:58:54.780Z,868
2017-10-04T13:59:55.478Z,860
2017-10-04T14:00:56.488Z,936
2017-10-04T14:01:57.309Z,976
2017-10-04T14:02:58.090Z,940
2017-10-04T14:03:58.810Z,924
2017-10-04T14:04:59.614Z,972
2017-10-04T14:06:00.340Z,996
2017-10-04T14:07:01.104Z,976
2017-10-04T14:08:01.797Z,968
2017-10-04T14:09:02.691Z,968
2017-10-04T14:10:03.362Z,952
2017-10-04T14:11:04.150Z,968
2017-10-04T14:12:04.831Z,1016
2017-10-04T14:13:05.584Z,1036
2017-10-04T14:14:06.402Z,1024
2017-10-04T14:15:07.139Z,952
2017-10-04T14:16:07.961Z,944
2017-10-04T14:17:08.653Z,936
2017-10-04T14:18:09.525Z,944
2017-10-04T14:19:10.251Z,948
2017-10-04T14:20:10.969Z,952
2017-10-04T14:21:11.681Z,952
2017-10-04T14:22:12.501Z,948
2017-10-04T14:23:13.328Z,940
2017-10-04T14:24:14.599Z,928
2017-10-04T14:25:15.297Z,928
2017-10-04T14:26:16.029Z,920
2017-10-04T14:27:16.763Z,868
2017-10-04T14:28:17.465Z,816
2017-10-04T14:29:18.191Z,796
2017-10-04T14:30:19.156Z,776
2017-10-04T14:31:20.168Z,784
2017-10-04T14:32:21.019Z,760
2017-10-04T14:33:21.744Z,760
2017-10-04T14:34:22.541Z,784
2017-10-04T14:35:23.519Z,796
2017-10-04T14:36:24.421Z,788
2017-10-04T14:37:25.256Z,812
2017-10-04T14:38:26.003Z,904
2017-10-04T14:39:26.808Z,924
2017-10-04T14:40:27.595Z,928
2017-10-04T14:41:28.348Z,896
2017-10-04T14:42:29.116Z,852
2017-10-04T14:43:29.918Z,736
2017-10-04T14:44:30.725Z,792
2017-10-04T14:45:31.482Z,800
2017-10-04T14:46:32.312Z,848
2017-10-04T14:47:33.092Z,852
2017-10-04T14:48:33.826Z,812
2017-10-04T14:49:34.814Z,744
2017-10-04T14:50:35.602Z,692
2017-10-04T14:51:36.651Z,652
2017-10-04T14:52:37.457Z,632
2017-10-04T14:53:38.463Z,596
2017-10-04T14:54:39.417Z,564
2017-10-04T14:56:55.951Z,548
2017-10-04T14:57:56.840Z,544
2017-10-04T14:58:58.409Z,536
2017-10-04T14:59:59.872Z,564
2017-10-04T15:01:00.618Z,588
2017-10-04T15:02:02.505Z,568
2017-10-04T15:03:03.501Z,520
2017-10-04T15:04:04.320Z,516
2017-10-04T15:05:05.103Z,524
2017-10-04T15:06:05.947Z,512
2017-10-04T15:07:06.705Z,496
2017-10-04T15:08:07.425Z,448
2017-10-04T15:09:08.279Z,396
2017-10-04T15:10:09.163Z,388
2017-10-04T15:11:09.892Z,392
2017-10-04T15:12:10.587Z,404
2017-10-04T15:13:11.340Z,404
2017-10-04T15:14:12.568Z,384
2017-10-04T15:15:13.683Z,380
2017-10-04T15:16:14.658Z,396
2017-10-04T15:17:15.527Z,408
2017-10-04T15:18:16.252Z,428
2017-10-04T15:19:17.241Z,412
2017-10-04T15:20:18.071Z,384
2017-10-04T15:21:18.786Z,396
2017-10-04T15:22:19.469Z,400
2017-10-04T15:23:20.238Z,416
2017-10-04T15:24:20.985Z,380
2017-10-04T15:25:22.012Z,376
2017-10-04T15:26:22.795Z,364
2017-10-04T15:27:23.661Z,356
2017-10-04T15:28:24.411Z,348
2017-10-04T15:29:25.165Z,356